Station History

Weather Underground - logo

Station Historical Data
Daily Summary for December 8, 2017 Units:  English    Metric   Both
« Previous Day
Next Day »
Daily Weekly Monthly Yearly Custom
  High: Low: Average:
Temperature: 66.5 °F 32.3 °F 47.4 °F
Dew Point: 39.8 °F 29.5 °F 34.6 °F
Humidity: 91 % 31 % 66 %
Wind Speed: 3.5 mph 0.0 mph 0.4 mph
Wind Gust: 3.5 mph - -
Wind:- - WNW
Pressure: 30.50 in 30.34 in -
Precipitation: 0.00 in    
Historical Graphs
 
 
Tabular Data for December 8, 2017
Time Temperature Dew Point Pressure Wind Wind Speed Wind Gust Humidity Rainfall Rate (Hourly)
00:01 37.9 °F 33.2 °F 30.49 in Calm     83 % 0.00 in
00:06 37.6 °F 33.2 °F 30.49 in Calm     84 % 0.00 in
00:11 37.4 °F 33.0 °F 30.49 in Calm     84 % 0.00 in
00:21 37.3 °F 32.9 °F 30.50 in Calm     84 % 0.00 in
00:31 37.0 °F 33.2 °F 30.49 in Calm     86 % 0.00 in
00:36 36.9 °F 33.1 °F 30.49 in Calm     86 % 0.00 in
00:41 36.9 °F 33.1 °F 30.49 in Calm     86 % 0.00 in
00:46 36.5 °F 32.7 °F 30.49 in Calm     86 % 0.00 in
00:51 36.3 °F 32.8 °F 30.49 in Calm     87 % 0.00 in
00:56 36.1 °F 32.6 °F 30.49 in Calm     87 % 0.00 in
01:01 35.8 °F 32.3 °F 30.50 in Calm     87 % 0.00 in
01:06 35.6 °F 32.4 °F 30.49 in Calm     88 % 0.00 in
01:16 35.3 °F 32.1 °F 30.49 in Calm     88 % 0.00 in
01:21 35.1 °F 32.2 °F 30.49 in Calm     89 % 0.00 in
01:26 35.0 °F 32.1 °F 30.49 in NE 1.2 mph   89 % 0.00 in
01:31 35.0 °F 32.1 °F 30.49 in Calm     89 % 0.00 in
01:36 34.9 °F 32.0 °F 30.49 in Calm     89 % 0.00 in
01:41 34.8 °F 31.9 °F 30.48 in Calm     89 % 0.00 in
01:46 34.8 °F 32.2 °F 30.48 in Calm     90 % 0.00 in
01:51 34.9 °F 32.3 °F 30.49 in Calm     90 % 0.00 in
01:56 35.1 °F 32.2 °F 30.49 in Calm     89 % 0.00 in
02:06 35.0 °F 31.8 °F 30.48 in Calm     88 % 0.00 in
02:11 34.8 °F 31.9 °F 30.49 in Calm     89 % 0.00 in
02:16 34.6 °F 31.7 °F 30.49 in Calm     89 % 0.00 in
02:22 34.5 °F 31.6 °F 30.49 in Calm     89 % 0.00 in
02:27 34.3 °F 31.4 °F 30.49 in Calm     89 % 0.00 in
02:32 34.1 °F 31.5 °F 30.49 in Calm     90 % 0.00 in
02:37 33.9 °F 31.3 °F 30.49 in Calm     90 % 0.00 in
02:42 33.6 °F 31.0 °F 30.49 in Calm     90 % 0.00 in
02:47 33.6 °F 31.3 °F 30.49 in Calm     91 % 0.00 in
03:03 33.8 °F 31.5 °F 30.49 in Calm     91 % 0.00 in
03:08 34.2 °F 31.6 °F 30.48 in Calm     90 % 0.00 in
03:13 34.3 °F 31.4 °F 30.49 in Calm     89 % 0.00 in
03:18 34.1 °F 30.9 °F 30.49 in Calm     88 % 0.00 in
03:28 34.3 °F 31.1 °F 30.49 in NE 1.2 mph   88 % 0.00 in
03:43 34.1 °F 30.9 °F 30.48 in Calm     88 % 0.00 in
03:48 33.9 °F 30.7 °F 30.48 in Calm     88 % 0.00 in
03:58 34.0 °F 31.1 °F 30.48 in Calm     89 % 0.00 in
04:03 34.3 °F 31.4 °F 30.48 in Calm     89 % 0.00 in
04:08 34.5 °F 31.6 °F 30.47 in Calm     89 % 0.00 in
04:13 34.6 °F 31.7 °F 30.47 in Calm     89 % 0.00 in
04:24 34.4 °F 31.2 °F 30.48 in Calm     88 % 0.00 in
04:29 34.2 °F 31.0 °F 30.47 in Calm     88 % 0.00 in
04:34 34.0 °F 31.1 °F 30.47 in Calm     89 % 0.00 in
04:39 33.7 °F 30.8 °F 30.47 in Calm     89 % 0.00 in
04:54 33.5 °F 30.9 °F 30.47 in Calm     90 % 0.00 in
04:59 33.8 °F 30.9 °F 30.47 in Calm     89 % 0.00 in
05:04 33.9 °F 31.0 °F 30.47 in Calm     89 % 0.00 in
05:14 34.2 °F 31.0 °F 30.47 in Calm     88 % 0.00 in
05:19 34.4 °F 31.2 °F 30.47 in Calm     88 % 0.00 in
05:25 34.7 °F 31.2 °F 30.47 in Calm     87 % 0.00 in
05:35 34.7 °F 30.9 °F 30.47 in Calm     86 % 0.00 in
05:40 34.5 °F 30.7 °F 30.48 in Calm     86 % 0.00 in
05:55 34.4 °F 30.6 °F 30.48 in Calm     86 % 0.00 in
06:00 34.3 °F 30.5 °F 30.48 in Calm     86 % 0.00 in
06:10 34.0 °F 30.3 °F 30.48 in Calm     86 % 0.00 in
06:15 34.0 °F 30.3 °F 30.48 in Calm     86 % 0.00 in
06:20 33.9 °F 30.2 °F 30.48 in Calm     86 % 0.00 in
06:35 33.1 °F 29.9 °F 30.48 in Calm     88 % 0.00 in
06:40 32.9 °F 29.7 °F 30.48 in Calm     88 % 0.00 in
06:45 32.6 °F 29.7 °F 30.48 in Calm     89 % 0.00 in
06:50 32.4 °F 29.5 °F 30.48 in Calm     89 % 0.00 in
07:00 32.3 °F 29.7 °F 30.48 in Calm     90 % 0.00 in
07:05 32.3 °F 29.7 °F 30.48 in Calm     90 % 0.00 in
07:10 32.3 °F 30.0 °F 30.47 in Calm     91 % 0.00 in
07:16 32.5 °F 30.2 °F 30.47 in Calm     91 % 0.00 in
07:26 33.1 °F 30.8 °F 30.47 in Calm     91 % 0.00 in
07:31 33.8 °F 30.9 °F 30.47 in Calm     89 % 0.00 in
07:46 36.5 °F 31.8 °F 30.47 in Calm     83 % 0.00 in
07:56 38.5 °F 32.6 °F 30.47 in Calm     79 % 0.00 in
08:01 39.5 °F 33.2 °F 30.47 in Calm     78 % 0.00 in
08:06 40.6 °F 33.3 °F 30.48 in Calm     75 % 0.00 in
08:11 41.3 °F 33.6 °F 30.48 in Calm     74 % 0.00 in
08:16 42.3 °F 33.6 °F 30.48 in Calm     71 % 0.00 in
08:21 43.4 °F 33.9 °F 30.48 in North 1.2 mph 1.2 mph 69 % 0.00 in
08:31 45.3 °F 34.2 °F 30.48 in Calm   0.1 mph 65 % 0.00 in
08:41 47.5 °F 33.4 °F 30.48 in WNW 3.5 mph 3.5 mph 58 % 0.00 in
08:51 49.4 °F 33.9 °F 30.48 in NNW 1.2 mph 1.2 mph 55 % 0.00 in
08:56 50.2 °F 33.7 °F 30.48 in NW 2.3 mph 2.3 mph 53 % 0.00 in
09:01 51.0 °F 33.0 °F 30.48 in Calm     50 % 0.00 in
09:06 51.7 °F 33.1 °F 30.48 in NW 2.3 mph 2.3 mph 49 % 0.00 in
09:16 52.7 °F 34.6 °F 30.48 in North 3.0 mph 3.0 mph 50 % 0.00 in
09:21 53.0 °F 33.3 °F 30.48 in NW 2.3 mph 2.3 mph 47 % 0.00 in
09:26 53.3 °F 33.0 °F 30.48 in Calm     46 % 0.00 in
09:31 53.6 °F 33.8 °F 30.48 in NW 1.2 mph   47 % 0.00 in
09:36 54.0 °F 34.7 °F 30.48 in NW 1.2 mph 1.2 mph 48 % 0.00 in
09:41 54.4 °F 33.5 °F 30.48 in NNW 1.2 mph   45 % 0.00 in
09:46 54.9 °F 34.5 °F 30.48 in WNW 2.0 mph 2.0 mph 46 % 0.00 in
09:51 55.2 °F 34.8 °F 30.47 in NW 1.0 mph 1.0 mph 46 % 0.00 in
09:56 55.6 °F 34.0 °F 30.47 in NW 1.2 mph 1.2 mph 44 % 0.00 in
10:02 56.0 °F 34.9 °F 30.47 in Calm   0.2 mph 45 % 0.00 in
10:07 56.5 °F 35.4 °F 30.47 in NW 1.2 mph   45 % 0.00 in
10:12 56.8 °F 35.7 °F 30.47 in NW 1.2 mph 1.2 mph 45 % 0.00 in
10:17 57.0 °F 34.7 °F 30.47 in WNW 1.2 mph 1.2 mph 43 % 0.00 in
10:22 57.2 °F 35.5 °F 30.47 in Calm     44 % 0.00 in
10:27 57.5 °F 35.7 °F 30.46 in Calm     44 % 0.00 in
10:32 58.0 °F 35.6 °F 30.46 in Calm     43 % 0.00 in
10:37 58.4 °F 35.4 °F 30.46 in NW 2.3 mph 2.3 mph 42 % 0.00 in
10:42 58.8 °F 36.9 °F 30.45 in Calm     44 % 0.00 in
10:52 59.6 °F 36.5 °F 30.45 in NW 1.0 mph 1.0 mph 42 % 0.00 in
10:57 60.0 °F 36.8 °F 30.45 in WNW 1.2 mph 1.2 mph 42 % 0.00 in
11:02 60.3 °F 37.7 °F 30.45 in Calm     43 % 0.00 in
11:07 60.7 °F 36.2 °F 30.44 in Calm     40 % 0.00 in
11:17 61.3 °F 36.1 °F 30.44 in Calm     39 % 0.00 in
11:22 61.6 °F 36.4 °F 30.44 in WNW 1.2 mph 1.2 mph 39 % 0.00 in
11:32 61.9 °F 36.7 °F 30.43 in NW 2.3 mph 2.3 mph 39 % 0.00 in
11:37 62.0 °F 36.1 °F 30.43 in Calm     38 % 0.00 in
11:42 62.2 °F 36.3 °F 30.42 in West 1.0 mph 1.0 mph 38 % 0.00 in
11:52 62.5 °F 36.5 °F 30.42 in Calm   0.1 mph 38 % 0.00 in
11:57 62.9 °F 36.9 °F 30.42 in NNW 1.0 mph 1.0 mph 38 % 0.00 in
12:02 63.3 °F 37.9 °F 30.42 in Calm     39 % 0.00 in
12:07 63.5 °F 37.4 °F 30.41 in Calm     38 % 0.00 in
12:12 63.7 °F 35.5 °F 30.41 in West 1.2 mph 1.2 mph 35 % 0.00 in
12:17 63.9 °F 37.1 °F 30.41 in NNW 3.5 mph 3.5 mph 37 % 0.00 in
12:22 63.9 °F 36.4 °F 30.41 in NW 2.0 mph 2.0 mph 36 % 0.00 in
12:27 64.0 °F 36.5 °F 30.40 in NW 1.2 mph 1.2 mph 36 % 0.00 in
12:42 64.7 °F 34.1 °F 30.40 in NW 1.2 mph 1.2 mph 32 % 0.00 in
12:47 64.9 °F 35.8 °F 30.39 in North 1.2 mph   34 % 0.00 in
12:52 65.1 °F 36.8 °F 30.39 in NNW 2.0 mph 2.0 mph 35 % 0.00 in
12:54 65.2 °F 36.1 °F 30.39 in NW 2.3 mph 2.3 mph 34 % 0.00 in
12:59 65.2 °F 36.1 °F 30.39 in WNW 1.2 mph   34 % 0.00 in
13:04 65.2 °F 35.4 °F 30.38 in NW 2.3 mph 2.3 mph 33 % 0.00 in
13:09 65.1 °F 35.3 °F 30.38 in NW 1.2 mph 1.2 mph 33 % 0.00 in
13:15 65.1 °F 36.0 °F 30.38 in Calm     34 % 0.00 in
13:19 65.2 °F 36.1 °F 30.38 in WSW 2.3 mph 2.3 mph 34 % 0.00 in
13:29 65.4 °F 35.5 °F 30.38 in NW 1.2 mph 1.2 mph 33 % 0.00 in
13:39 65.7 °F 35.8 °F 30.37 in WNW 1.2 mph 1.2 mph 33 % 0.00 in
13:45 65.9 °F 36.0 °F 30.37 in NW 2.3 mph 2.3 mph 33 % 0.00 in
13:50 65.9 °F 36.0 °F 30.37 in NW 1.2 mph 1.2 mph 33 % 0.00 in
14:00 66.3 °F 35.5 °F 30.36 in Calm     32 % 0.00 in
14:05 66.4 °F 34.8 °F 30.36 in Calm     31 % 0.00 in
14:10 66.5 °F 34.9 °F 30.36 in West 1.2 mph 1.2 mph 31 % 0.00 in
14:15 66.4 °F 35.6 °F 30.36 in NW 1.2 mph 1.2 mph 32 % 0.00 in
14:20 66.4 °F 35.6 °F 30.35 in WNW 1.2 mph 1.2 mph 32 % 0.00 in
14:25 66.4 °F 34.8 °F 30.35 in NW 2.3 mph 2.3 mph 31 % 0.00 in
14:30 66.4 °F 35.6 °F 30.35 in Calm     32 % 0.00 in
14:35 66.4 °F 34.8 °F 30.35 in NW 1.2 mph 1.2 mph 31 % 0.00 in
14:40 66.4 °F 35.6 °F 30.35 in NW 3.5 mph 3.5 mph 32 % 0.00 in
14:45 66.4 °F 37.2 °F 30.35 in Calm     34 % 0.00 in
14:50 66.3 °F 36.3 °F 30.35 in NW 3.5 mph 3.5 mph 33 % 0.00 in
15:10 66.3 °F 37.8 °F 30.35 in West 2.0 mph 2.0 mph 35 % 0.00 in
15:15 66.3 °F 36.3 °F 30.35 in Calm     33 % 0.00 in
15:20 66.1 °F 37.6 °F 30.35 in NW 1.2 mph 1.2 mph 35 % 0.00 in
15:30 65.9 °F 36.0 °F 30.34 in NW 2.3 mph 2.3 mph 33 % 0.00 in
15:35 65.9 °F 36.0 °F 30.35 in NW 1.2 mph 1.2 mph 33 % 0.00 in
15:40 65.7 °F 36.5 °F 30.34 in WNW 1.2 mph 1.2 mph 34 % 0.00 in
15:45 65.5 °F 37.1 °F 30.34 in NW 1.2 mph 1.2 mph 35 % 0.00 in
15:50 65.2 °F 36.8 °F 30.35 in Calm     35 % 0.00 in
15:55 65.0 °F 36.7 °F 30.34 in WNW 1.2 mph 1.2 mph 35 % 0.00 in
16:05 64.2 °F 36.7 °F 30.35 in Calm     36 % 0.00 in
16:15 63.3 °F 36.6 °F 30.35 in Calm     37 % 0.00 in
16:20 62.7 °F 36.7 °F 30.35 in Calm     38 % 0.00 in
16:25 62.0 °F 36.1 °F 30.35 in Calm     38 % 0.00 in
16:30 61.1 °F 35.9 °F 30.35 in Calm     39 % 0.00 in
16:35 60.2 °F 36.4 °F 30.35 in Calm     41 % 0.00 in
16:40 59.3 °F 36.8 °F 30.35 in Calm     43 % 0.00 in
16:55 56.5 °F 38.6 °F 30.35 in Calm     51 % 0.00 in
17:00 55.5 °F 39.1 °F 30.35 in Calm     54 % 0.00 in
17:05 54.6 °F 39.7 °F 30.35 in Calm     57 % 0.00 in
17:15 53.0 °F 39.5 °F 30.36 in Calm     60 % 0.00 in
17:30 51.6 °F 39.4 °F 30.36 in Calm     63 % 0.00 in
17:35 51.4 °F 38.8 °F 30.36 in Calm     62 % 0.00 in
17:45 50.5 °F 39.2 °F 30.36 in Calm     65 % 0.00 in
17:51 49.9 °F 39.8 °F 30.36 in Calm     68 % 0.00 in
17:56 49.2 °F 39.1 °F 30.36 in Calm     68 % 0.00 in
18:01 48.7 °F 38.6 °F 30.36 in Calm     68 % 0.00 in
18:11 48.3 °F 38.6 °F 30.36 in Calm     69 % 0.00 in
18:16 48.1 °F 38.8 °F 30.36 in Calm     70 % 0.00 in
18:21 48.3 °F 38.6 °F 30.36 in Calm     69 % 0.00 in
18:26 48.1 °F 38.4 °F 30.36 in Calm     69 % 0.00 in
18:36 48.1 °F 38.0 °F 30.37 in Calm     68 % 0.00 in
18:41 47.9 °F 37.8 °F 30.37 in Calm     68 % 0.00 in
18:46 47.7 °F 38.0 °F 30.37 in Calm     69 % 0.00 in
18:51 47.5 °F 37.8 °F 30.37 in Calm     69 % 0.00 in
19:01 47.2 °F 37.9 °F 30.38 in Calm     70 % 0.00 in
19:06 47.5 °F 37.8 °F 30.38 in Calm     69 % 0.00 in
19:11 47.5 °F 37.8 °F 30.38 in Calm     69 % 0.00 in
19:16 47.5 °F 37.5 °F 30.38 in Calm     68 % 0.00 in
19:21 47.8 °F 37.4 °F 30.38 in Calm     67 % 0.00 in
19:24 47.7 °F 37.3 °F 30.38 in Calm     67 % 0.00 in
19:33 47.6 °F 37.6 °F 30.38 in Calm     68 % 0.00 in
19:38 47.2 °F 37.2 °F 30.38 in Calm     68 % 0.00 in
19:48 46.4 °F 37.1 °F 30.38 in Calm     70 % 0.00 in
19:53 46.0 °F 37.1 °F 30.38 in Calm     71 % 0.00 in
19:58 45.7 °F 36.8 °F 30.38 in Calm     71 % 0.00 in
20:18 44.3 °F 37.2 °F 30.39 in Calm     76 % 0.00 in
20:23 44.0 °F 37.3 °F 30.39 in Calm     77 % 0.00 in
20:28 43.5 °F 36.8 °F 30.39 in Calm     77 % 0.00 in
20:33 43.3 °F 36.9 °F 30.39 in Calm     78 % 0.00 in
20:38 43.1 °F 37.0 °F 30.39 in Calm     79 % 0.00 in
20:39 43.1 °F 37.0 °F 30.39 in Calm     79 % 0.00 in
20:44 42.8 °F 36.7 °F 30.39 in Calm     79 % 0.00 in
20:54 42.4 °F 36.7 °F 30.40 in Calm     80 % 0.00 in
20:59 42.1 °F 36.4 °F 30.40 in Calm     80 % 0.00 in
21:04 41.9 °F 36.5 °F 30.40 in Calm     81 % 0.00 in
21:09 41.6 °F 36.2 °F 30.40 in Calm     81 % 0.00 in
21:14 41.3 °F 35.9 °F 30.40 in Calm     81 % 0.00 in
21:19 41.0 °F 35.9 °F 30.40 in Calm     82 % 0.00 in
21:29 40.8 °F 36.0 °F 30.40 in Calm     83 % 0.00 in
21:34 40.9 °F 36.1 °F 30.40 in Calm     83 % 0.00 in
21:39 41.0 °F 35.9 °F 30.40 in Calm     82 % 0.00 in
21:44 40.9 °F 35.5 °F 30.40 in Calm     81 % 0.00 in
21:49 40.6 °F 35.5 °F 30.40 in Calm     82 % 0.00 in
21:54 40.3 °F 35.5 °F 30.40 in Calm     83 % 0.00 in
22:04 39.8 °F 35.4 °F 30.40 in Calm     84 % 0.00 in
22:09 39.6 °F 35.2 °F 30.40 in Calm     84 % 0.00 in
22:14 39.4 °F 35.0 °F 30.40 in Calm     84 % 0.00 in
22:19 39.4 °F 35.0 °F 30.40 in Calm     84 % 0.00 in
22:29 39.7 °F 35.0 °F 30.41 in Calm     83 % 0.00 in
22:34 39.7 °F 34.7 °F 30.41 in Calm     82 % 0.00 in
22:49 40.1 °F 34.4 °F 30.41 in Calm     80 % 0.00 in
22:54 40.2 °F 34.5 °F 30.41 in Calm     80 % 0.00 in
22:59 40.0 °F 34.3 °F 30.41 in Calm     80 % 0.00 in
23:04 39.6 °F 34.2 °F 30.40 in Calm     81 % 0.00 in
23:09 39.5 °F 34.2 °F 30.40 in Calm     81 % 0.00 in
23:19 39.5 °F 33.8 °F 30.40 in Calm     80 % 0.00 in
23:24 40.1 °F 34.1 °F 30.40 in Calm     79 % 0.00 in
23:29 40.4 °F 34.1 °F 30.41 in Calm     78 % 0.00 in
23:34 40.4 °F 34.4 °F 30.40 in Calm     79 % 0.00 in
23:45 39.9 °F 33.9 °F 30.40 in Calm     79 % 0.00 in
23:50 39.5 °F 33.8 °F 30.40 in Calm     80 % 0.00 in
23:55 39.2 °F 33.5 °F 30.40 in Calm     80 % 0.00 in
Park Place, Exeter, Tulare County, California, USA
Compliments of Weather Underground - 2.5 mb